sensor_id;sensor_type;location;lat;lon;timestamp;P1;durP1;ratioP1;P2;durP2;ratioP2
18286;SDS011;9269;50.838;12.094;2023-03-01T00:01:00;30.90;;;19.77;;
18286;SDS011;9269;50.838;12.094;2023-03-01T00:03:28;23.13;;;18.23;;
18286;SDS011;9269;50.838;12.094;2023-03-01T00:05:57;24.23;;;18.33;;
18286;SDS011;9269;50.838;12.094;2023-03-01T00:08:25;26.83;;;19.83;;
18286;SDS011;9269;50.838;12.094;2023-03-01T00:11:02;25.37;;;18.73;;
18286;SDS011;9269;50.838;12.094;2023-03-01T00:13:34;27.17;;;20.20;;
18286;SDS011;9269;50.838;12.094;2023-03-01T00:16:04;27.17;;;20.13;;
18286;SDS011;9269;50.838;12.094;2023-03-01T00:18:33;27.57;;;20.03;;
18286;SDS011;9269;50.838;12.094;2023-03-01T00:21:01;29.90;;;20.60;;
18286;SDS011;9269;50.838;12.094;2023-03-01T00:23:30;28.70;;;20.43;;
18286;SDS011;9269;50.838;12.094;2023-03-01T00:25:59;31.93;;;21.93;;
18286;SDS011;9269;50.838;12.094;2023-03-01T00:28:28;30.67;;;21.23;;
18286;SDS011;9269;50.838;12.094;2023-03-01T00:31:01;29.07;;;21.17;;
18286;SDS011;9269;50.838;12.094;2023-03-01T00:33:31;30.30;;;20.77;;
18286;SDS011;9269;50.838;12.094;2023-03-01T00:36:00;30.40;;;19.90;;
18286;SDS011;9269;50.838;12.094;2023-03-01T00:38:29;27.33;;;19.77;;
18286;SDS011;9269;50.838;12.094;2023-03-01T00:41:02;30.83;;;21.97;;
18286;SDS011;9269;50.838;12.094;2023-03-01T00:43:33;29.20;;;20.23;;
18286;SDS011;9269;50.838;12.094;2023-03-01T00:46:03;28.97;;;20.83;;
18286;SDS011;9269;50.838;12.094;2023-03-01T00:48:32;25.40;;;19.30;;
18286;SDS011;9269;50.838;12.094;2023-03-01T00:51:04;26.60;;;19.97;;
18286;SDS011;9269;50.838;12.094;2023-03-01T00:53:34;29.10;;;20.23;;
18286;SDS011;9269;50.838;12.094;2023-03-01T00:56:04;27.50;;;20.57;;
18286;SDS011;9269;50.838;12.094;2023-03-01T00:58:37;28.40;;;20.87;;
18286;SDS011;9269;50.838;12.094;2023-03-01T01:01:12;27.17;;;20.17;;
18286;SDS011;9269;50.838;12.094;2023-03-01T01:03:45;27.53;;;19.47;;
18286;SDS011;9269;50.838;12.094;2023-03-01T01:06:15;29.77;;;20.83;;
18286;SDS011;9269;50.838;12.094;2023-03-01T01:08:44;26.33;;;19.90;;
18286;SDS011;9269;50.838;12.094;2023-03-01T01:11:12;29.80;;;20.23;;
18286;SDS011;9269;50.838;12.094;2023-03-01T01:13:43;29.47;;;20.13;;
18286;SDS011;9269;50.838;12.094;2023-03-01T01:16:13;27.20;;;19.00;;
18286;SDS011;9269;50.838;12.094;2023-03-01T01:18:43;28.20;;;18.97;;
18286;SDS011;9269;50.838;12.094;2023-03-01T01:21:15;28.57;;;19.77;;
18286;SDS011;9269;50.838;12.094;2023-03-01T01:23:45;30.63;;;21.80;;
18286;SDS011;9269;50.838;12.094;2023-03-01T01:26:15;26.50;;;20.30;;
18286;SDS011;9269;50.838;12.094;2023-03-01T01:28:46;26.47;;;19.87;;
18286;SDS011;9269;50.838;12.094;2023-03-01T01:31:15;26.63;;;19.73;;
18286;SDS011;9269;50.838;12.094;2023-03-01T01:33:43;29.50;;;19.57;;
18286;SDS011;9269;50.838;12.094;2023-03-01T01:36:12;25.63;;;18.20;;
18286;SDS011;9269;50.838;12.094;2023-03-01T01:38:41;25.93;;;18.83;;
18286;SDS011;9269;50.838;12.094;2023-03-01T01:41:10;26.03;;;18.87;;
18286;SDS011;9269;50.838;12.094;2023-03-01T01:43:40;28.63;;;19.77;;
18286;SDS011;9269;50.838;12.094;2023-03-01T01:46:14;27.57;;;19.57;;
18286;SDS011;9269;50.838;12.094;2023-03-01T01:48:50;29.23;;;18.93;;
18286;SDS011;9269;50.838;12.094;2023-03-01T01:51:24;27.70;;;18.07;;
18286;SDS011;9269;50.838;12.094;2023-03-01T01:53:55;25.63;;;18.73;;
18286;SDS011;9269;50.838;12.094;2023-03-01T01:56:26;28.23;;;19.83;;
18286;SDS011;9269;50.838;12.094;2023-03-01T01:58:57;29.17;;;19.37;;
18286;SDS011;9269;50.838;12.094;2023-03-01T02:01:27;26.23;;;20.03;;
18286;SDS011;9269;50.838;12.094;2023-03-01T02:03:56;26.23;;;18.43;;
18286;SDS011;9269;50.838;12.094;2023-03-01T02:06:27;26.37;;;19.77;;
18286;SDS011;9269;50.838;12.094;2023-03-01T02:09:00;28.47;;;19.47;;
18286;SDS011;9269;50.838;12.094;2023-03-01T02:11:32;29.67;;;20.07;;
18286;SDS011;9269;50.838;12.094;2023-03-01T02:14:00;27.53;;;19.60;;
18286;SDS011;9269;50.838;12.094;2023-03-01T02:16:37;29.17;;;19.67;;
18286;SDS011;9269;50.838;12.094;2023-03-01T02:19:06;27.53;;;19.43;;
18286;SDS011;9269;50.838;12.094;2023-03-01T02:21:40;29.00;;;19.63;;
18286;SDS011;9269;50.838;12.094;2023-03-01T02:24:18;27.33;;;20.00;;
18286;SDS011;9269;50.838;12.094;2023-03-01T02:26:56;30.60;;;20.33;;
18286;SDS011;9269;50.838;12.094;2023-03-01T02:29:28;26.20;;;19.10;;
18286;SDS011;9269;50.838;12.094;2023-03-01T02:31:57;29.07;;;19.80;;
18286;SDS011;9269;50.838;12.094;2023-03-01T02:34:29;28.23;;;19.47;;
18286;SDS011;9269;50.838;12.094;2023-03-01T02:37:01;31.70;;;20.93;;
18286;SDS011;9269;50.838;12.094;2023-03-01T02:39:33;26.93;;;19.63;;
18286;SDS011;9269;50.838;12.094;2023-03-01T02:42:09;26.50;;;19.13;;
18286;SDS011;9269;50.838;12.094;2023-03-01T02:44:41;30.23;;;19.27;;
18286;SDS011;9269;50.838;12.094;2023-03-01T02:47:09;27.60;;;19.87;;
18286;SDS011;9269;50.838;12.094;2023-03-01T02:49:37;27.97;;;20.43;;
18286;SDS011;9269;50.838;12.094;2023-03-01T02:52:08;27.53;;;20.27;;
18286;SDS011;9269;50.838;12.094;2023-03-01T02:54:56;29.60;;;20.27;;
18286;SDS011;9269;50.838;12.094;2023-03-01T02:57:28;29.00;;;20.30;;
18286;SDS011;9269;50.838;12.094;2023-03-01T03:00:02;29.83;;;20.73;;
18286;SDS011;9269;50.838;12.094;2023-03-01T03:02:34;28.67;;;19.33;;
18286;SDS011;9269;50.838;12.094;2023-03-01T03:05:04;31.07;;;21.10;;
18286;SDS011;9269;50.838;12.094;2023-03-01T03:07:35;27.83;;;19.97;;
18286;SDS011;9269;50.838;12.094;2023-03-01T03:10:06;29.73;;;20.87;;
18286;SDS011;9269;50.838;12.094;2023-03-01T03:12:38;29.90;;;20.20;;
18286;SDS011;9269;50.838;12.094;2023-03-01T03:15:09;29.47;;;20.57;;
18286;SDS011;9269;50.838;12.094;2023-03-01T03:17:47;28.77;;;20.87;;
18286;SDS011;9269;50.838;12.094;2023-03-01T03:20:17;27.27;;;19.43;;
18286;SDS011;9269;50.838;12.094;2023-03-01T03:22:46;28.93;;;20.87;;
18286;SDS011;9269;50.838;12.094;2023-03-01T03:25:16;26.93;;;19.90;;
18286;SDS011;9269;50.838;12.094;2023-03-01T03:27:46;30.30;;;21.20;;
18286;SDS011;9269;50.838;12.094;2023-03-01T03:30:17;31.60;;;22.23;;
18286;SDS011;9269;50.838;12.094;2023-03-01T03:32:48;27.73;;;20.07;;
18286;SDS011;9269;50.838;12.094;2023-03-01T03:35:23;28.87;;;20.47;;
18286;SDS011;9269;50.838;12.094;2023-03-01T03:37:53;28.27;;;20.50;;
18286;SDS011;9269;50.838;12.094;2023-03-01T03:40:31;29.50;;;20.40;;
18286;SDS011;9269;50.838;12.094;2023-03-01T03:43:01;27.67;;;19.20;;
18286;SDS011;9269;50.838;12.094;2023-03-01T03:45:31;31.10;;;22.07;;
18286;SDS011;9269;50.838;12.094;2023-03-01T03:48:02;43.30;;;30.77;;
18286;SDS011;9269;50.838;12.094;2023-03-01T03:50:32;40.30;;;28.57;;
18286;SDS011;9269;50.838;12.094;2023-03-01T03:53:02;38.73;;;26.07;;
18286;SDS011;9269;50.838;12.094;2023-03-01T03:55:32;37.27;;;26.17;;
18286;SDS011;9269;50.838;12.094;2023-03-01T03:58:08;32.77;;;22.70;;
18286;SDS011;9269;50.838;12.094;2023-03-01T04:00:39;31.23;;;21.87;;
18286;SDS011;9269;50.838;12.094;2023-03-01T04:03:10;29.50;;;19.43;;
18286;SDS011;9269;50.838;12.094;2023-03-01T04:05:40;27.50;;;18.53;;
18286;SDS011;9269;50.838;12.094;2023-03-01T04:08:12;29.03;;;19.50;;
18286;SDS011;9269;50.838;12.094;2023-03-01T04:10:41;26.83;;;19.40;;
18286;SDS011;9269;50.838;12.094;2023-03-01T04:13:12;29.13;;;19.33;;
18286;SDS011;9269;50.838;12.094;2023-03-01T04:15:44;26.13;;;18.70;;
18286;SDS011;9269;50.838;12.094;2023-03-01T04:18:12;25.00;;;18.90;;
18286;SDS011;9269;50.838;12.094;2023-03-01T04:20:42;28.03;;;19.20;;
18286;SDS011;9269;50.838;12.094;2023-03-01T04:23:12;29.03;;;19.53;;
18286;SDS011;9269;50.838;12.094;2023-03-01T04:25:44;27.33;;;20.00;;
18286;SDS011;9269;50.838;12.094;2023-03-01T04:28:16;24.97;;;18.53;;
18286;SDS011;9269;50.838;12.094;2023-03-01T04:30:45;26.10;;;18.50;;
18286;SDS011;9269;50.838;12.094;2023-03-01T04:33:16;26.10;;;18.20;;
18286;SDS011;9269;50.838;12.094;2023-03-01T04:35:45;24.70;;;18.30;;
18286;SDS011;9269;50.838;12.094;2023-03-01T04:38:16;26.67;;;18.90;;
18286;SDS011;9269;50.838;12.094;2023-03-01T04:40:44;29.17;;;19.47;;
18286;SDS011;9269;50.838;12.094;2023-03-01T04:43:15;27.53;;;19.83;;
18286;SDS011;9269;50.838;12.094;2023-03-01T04:45:45;27.67;;;20.13;;
18286;SDS011;9269;50.838;12.094;2023-03-01T04:48:14;28.60;;;19.57;;
18286;SDS011;9269;50.838;12.094;2023-03-01T04:50:42;27.53;;;19.40;;
18286;SDS011;9269;50.838;12.094;2023-03-01T04:53:11;30.77;;;20.63;;
18286;SDS011;9269;50.838;12.094;2023-03-01T04:55:39;28.27;;;20.10;;
18286;SDS011;9269;50.838;12.094;2023-03-01T04:58:07;31.47;;;22.57;;
18286;SDS011;9269;50.838;12.094;2023-03-01T05:00:36;30.37;;;21.57;;
18286;SDS011;9269;50.838;12.094;2023-03-01T05:03:05;31.17;;;21.70;;
18286;SDS011;9269;50.838;12.094;2023-03-01T05:05:34;30.77;;;20.87;;
18286;SDS011;9269;50.838;12.094;2023-03-01T05:08:05;27.80;;;20.37;;
18286;SDS011;9269;50.838;12.094;2023-03-01T05:10:35;29.40;;;20.47;;
18286;SDS011;9269;50.838;12.094;2023-03-01T05:13:05;30.73;;;20.07;;
18286;SDS011;9269;50.838;12.094;2023-03-01T05:15:34;29.67;;;19.50;;
18286;SDS011;9269;50.838;12.094;2023-03-01T05:18:03;27.10;;;19.77;;
18286;SDS011;9269;50.838;12.094;2023-03-01T05:20:39;27.20;;;18.87;;
18286;SDS011;9269;50.838;12.094;2023-03-01T05:23:07;28.70;;;19.87;;
18286;SDS011;9269;50.838;12.094;2023-03-01T05:25:35;29.70;;;20.00;;
18286;SDS011;9269;50.838;12.094;2023-03-01T05:28:07;27.10;;;19.53;;
18286;SDS011;9269;50.838;12.094;2023-03-01T05:30:39;26.53;;;18.47;;
18286;SDS011;9269;50.838;12.094;2023-03-01T05:33:08;26.83;;;19.27;;
18286;SDS011;9269;50.838;12.094;2023-03-01T05:35:44;26.97;;;19.63;;
18286;SDS011;9269;50.838;12.094;2023-03-01T05:38:15;29.17;;;19.30;;
18286;SDS011;9269;50.838;12.094;2023-03-01T05:40:47;27.07;;;20.07;;
18286;SDS011;9269;50.838;12.094;2023-03-01T05:43:16;28.80;;;19.63;;
18286;SDS011;9269;50.838;12.094;2023-03-01T05:45:44;30.60;;;19.67;;
18286;SDS011;9269;50.838;12.094;2023-03-01T05:48:13;30.17;;;20.70;;
18286;SDS011;9269;50.838;12.094;2023-03-01T05:50:42;28.60;;;19.60;;
18286;SDS011;9269;50.838;12.094;2023-03-01T05:53:14;28.77;;;19.67;;
18286;SDS011;9269;50.838;12.094;2023-03-01T05:55:43;28.40;;;20.47;;
18286;SDS011;9269;50.838;12.094;2023-03-01T05:58:14;29.57;;;19.13;;
18286;SDS011;9269;50.838;12.094;2023-03-01T06:00:44;29.03;;;19.30;;
18286;SDS011;9269;50.838;12.094;2023-03-01T06:03:15;26.87;;;18.93;;
18286;SDS011;9269;50.838;12.094;2023-03-01T06:05:46;27.60;;;19.03;;
18286;SDS011;9269;50.838;12.094;2023-03-01T06:08:14;26.87;;;19.23;;
18286;SDS011;9269;50.838;12.094;2023-03-01T06:10:42;25.73;;;19.57;;
18286;SDS011;9269;50.838;12.094;2023-03-01T06:13:10;31.07;;;20.20;;
18286;SDS011;9269;50.838;12.094;2023-03-01T06:15:39;27.33;;;19.00;;
18286;SDS011;9269;50.838;12.094;2023-03-01T06:18:08;29.47;;;20.27;;
18286;SDS011;9269;50.838;12.094;2023-03-01T06:20:36;30.77;;;21.50;;
18286;SDS011;9269;50.838;12.094;2023-03-01T06:23:06;30.60;;;20.27;;
18286;SDS011;9269;50.838;12.094;2023-03-01T06:25:36;30.03;;;19.93;;
18286;SDS011;9269;50.838;12.094;2023-03-01T06:28:05;28.40;;;19.70;;
18286;SDS011;9269;50.838;12.094;2023-03-01T06:30:33;25.90;;;19.73;;
18286;SDS011;9269;50.838;12.094;2023-03-01T06:33:02;28.60;;;19.47;;
18286;SDS011;9269;50.838;12.094;2023-03-01T06:35:30;29.70;;;20.73;;
18286;SDS011;9269;50.838;12.094;2023-03-01T06:37:59;28.97;;;20.37;;
18286;SDS011;9269;50.838;12.094;2023-03-01T06:40:30;29.83;;;20.40;;
18286;SDS011;9269;50.838;12.094;2023-03-01T06:43:02;28.20;;;20.10;;
18286;SDS011;9269;50.838;12.094;2023-03-01T06:45:30;28.67;;;20.20;;
18286;SDS011;9269;50.838;12.094;2023-03-01T06:48:02;31.63;;;20.97;;
18286;SDS011;9269;50.838;12.094;2023-03-01T06:50:32;27.73;;;20.13;;
18286;SDS011;9269;50.838;12.094;2023-03-01T06:53:01;28.50;;;21.37;;
18286;SDS011;9269;50.838;12.094;2023-03-01T06:55:31;28.70;;;20.20;;
18286;SDS011;9269;50.838;12.094;2023-03-01T06:58:00;31.80;;;21.37;;
18286;SDS011;9269;50.838;12.094;2023-03-01T07:00:30;28.17;;;20.10;;
18286;SDS011;9269;50.838;12.094;2023-03-01T07:02:59;29.83;;;21.57;;
18286;SDS011;9269;50.838;12.094;2023-03-01T07:05:29;31.30;;;21.67;;
18286;SDS011;9269;50.838;12.094;2023-03-01T07:07:58;30.17;;;20.37;;
18286;SDS011;9269;50.838;12.094;2023-03-01T07:10:26;30.00;;;20.30;;
18286;SDS011;9269;50.838;12.094;2023-03-01T07:12:56;29.40;;;20.30;;
18286;SDS011;9269;50.838;12.094;2023-03-01T07:15:25;29.07;;;20.43;;
18286;SDS011;9269;50.838;12.094;2023-03-01T07:17:54;27.13;;;19.70;;
18286;SDS011;9269;50.838;12.094;2023-03-01T07:20:25;29.63;;;20.80;;
18286;SDS011;9269;50.838;12.094;2023-03-01T07:22:54;31.00;;;22.20;;
18286;SDS011;9269;50.838;12.094;2023-03-01T07:25:23;29.90;;;21.17;;
18286;SDS011;9269;50.838;12.094;2023-03-01T07:27:51;31.33;;;20.90;;
18286;SDS011;9269;50.838;12.094;2023-03-01T07:30:22;35.07;;;22.23;;
18286;SDS011;9269;50.838;12.094;2023-03-01T07:32:53;32.50;;;22.03;;
18286;SDS011;9269;50.838;12.094;2023-03-01T07:35:22;30.30;;;21.67;;
18286;SDS011;9269;50.838;12.094;2023-03-01T07:37:54;34.77;;;22.57;;
18286;SDS011;9269;50.838;12.094;2023-03-01T07:40:22;32.50;;;22.63;;
18286;SDS011;9269;50.838;12.094;2023-03-01T07:42:54;30.73;;;22.87;;
18286;SDS011;9269;50.838;12.094;2023-03-01T07:45:25;30.87;;;22.40;;
18286;SDS011;9269;50.838;12.094;2023-03-01T07:47:54;35.93;;;24.47;;
18286;SDS011;9269;50.838;12.094;2023-03-01T07:50:23;34.13;;;23.73;;
18286;SDS011;9269;50.838;12.094;2023-03-01T07:52:51;33.67;;;22.70;;
18286;SDS011;9269;50.838;12.094;2023-03-01T07:55:19;33.77;;;23.87;;
18286;SDS011;9269;50.838;12.094;2023-03-01T07:57:48;34.00;;;23.13;;
18286;SDS011;9269;50.838;12.094;2023-03-01T08:00:17;35.63;;;24.50;;
18286;SDS011;9269;50.838;12.094;2023-03-01T08:02:47;33.73;;;23.27;;
18286;SDS011;9269;50.838;12.094;2023-03-01T08:05:15;33.43;;;23.50;;
18286;SDS011;9269;50.838;12.094;2023-03-01T08:07:44;33.57;;;24.20;;
18286;SDS011;9269;50.838;12.094;2023-03-01T08:10:12;35.57;;;25.17;;
18286;SDS011;9269;50.838;12.094;2023-03-01T08:12:41;38.17;;;25.40;;
18286;SDS011;9269;50.838;12.094;2023-03-01T08:15:10;35.07;;;23.83;;
18286;SDS011;9269;50.838;12.094;2023-03-01T08:17:38;35.40;;;24.93;;
18286;SDS011;9269;50.838;12.094;2023-03-01T08:20:09;35.17;;;25.20;;
18286;SDS011;9269;50.838;12.094;2023-03-01T08:22:39;32.70;;;24.03;;
18286;SDS011;9269;50.838;12.094;2023-03-01T08:25:08;37.83;;;25.70;;
18286;SDS011;9269;50.838;12.094;2023-03-01T08:27:37;33.80;;;25.60;;
18286;SDS011;9269;50.838;12.094;2023-03-01T08:30:06;33.60;;;24.73;;
18286;SDS011;9269;50.838;12.094;2023-03-01T08:32:36;33.17;;;25.00;;
18286;SDS011;9269;50.838;12.094;2023-03-01T08:35:06;31.57;;;24.70;;
18286;SDS011;9269;50.838;12.094;2023-03-01T08:37:36;34.03;;;25.17;;
18286;SDS011;9269;50.838;12.094;2023-03-01T08:40:05;32.63;;;24.73;;
18286;SDS011;9269;50.838;12.094;2023-03-01T08:42:36;34.03;;;25.13;;
18286;SDS011;9269;50.838;12.094;2023-03-01T08:45:05;33.83;;;24.00;;
18286;SDS011;9269;50.838;12.094;2023-03-01T08:47:34;32.63;;;24.57;;
18286;SDS011;9269;50.838;12.094;2023-03-01T08:50:03;34.80;;;25.23;;
18286;SDS011;9269;50.838;12.094;2023-03-01T08:52:34;33.33;;;24.20;;
18286;SDS011;9269;50.838;12.094;2023-03-01T08:55:02;34.63;;;24.80;;
18286;SDS011;9269;50.838;12.094;2023-03-01T08:57:31;35.07;;;25.73;;
18286;SDS011;9269;50.838;12.094;2023-03-01T08:59:59;30.80;;;22.87;;
18286;SDS011;9269;50.838;12.094;2023-03-01T09:02:28;32.07;;;23.27;;
18286;SDS011;9269;50.838;12.094;2023-03-01T09:04:56;30.97;;;21.93;;
18286;SDS011;9269;50.838;12.094;2023-03-01T09:07:25;29.53;;;21.33;;
18286;SDS011;9269;50.838;12.094;2023-03-01T09:09:56;27.07;;;20.43;;
18286;SDS011;9269;50.838;12.094;2023-03-01T09:12:25;29.90;;;21.40;;
18286;SDS011;9269;50.838;12.094;2023-03-01T09:14:53;27.57;;;21.00;;
18286;SDS011;9269;50.838;12.094;2023-03-01T09:17:21;27.43;;;21.13;;
18286;SDS011;9269;50.838;12.094;2023-03-01T09:19:50;27.27;;;21.20;;
18286;SDS011;9269;50.838;12.094;2023-03-01T09:22:18;30.70;;;21.93;;
18286;SDS011;9269;50.838;12.094;2023-03-01T09:24:47;30.63;;;20.83;;
18286;SDS011;9269;50.838;12.094;2023-03-01T09:27:17;27.40;;;20.23;;
18286;SDS011;9269;50.838;12.094;2023-03-01T09:29:45;28.23;;;21.87;;
18286;SDS011;9269;50.838;12.094;2023-03-01T09:32:14;25.73;;;20.47;;
18286;SDS011;9269;50.838;12.094;2023-03-01T09:34:42;28.00;;;19.93;;
18286;SDS011;9269;50.838;12.094;2023-03-01T09:37:31;27.00;;;20.67;;
18286;SDS011;9269;50.838;12.094;2023-03-01T09:40:00;28.20;;;21.37;;
18286;SDS011;9269;50.838;12.094;2023-03-01T09:42:32;28.50;;;21.37;;
18286;SDS011;9269;50.838;12.094;2023-03-01T09:45:06;29.17;;;21.13;;
18286;SDS011;9269;50.838;12.094;2023-03-01T09:47:42;30.80;;;22.03;;
18286;SDS011;9269;50.838;12.094;2023-03-01T09:50:11;29.47;;;22.33;;
18286;SDS011;9269;50.838;12.094;2023-03-01T09:52:45;30.77;;;22.37;;
18286;SDS011;9269;50.838;12.094;2023-03-01T09:55:20;28.33;;;20.57;;
18286;SDS011;9269;50.838;12.094;2023-03-01T09:58:00;27.00;;;21.33;;
18286;SDS011;9269;50.838;12.094;2023-03-01T10:00:36;27.20;;;20.93;;
18286;SDS011;9269;50.838;12.094;2023-03-01T10:03:11;26.20;;;21.13;;
18286;SDS011;9269;50.838;12.094;2023-03-01T10:05:47;28.47;;;22.23;;
18286;SDS011;9269;50.838;12.094;2023-03-01T10:08:27;28.83;;;21.33;;
18286;SDS011;9269;50.838;12.094;2023-03-01T10:11:17;27.37;;;21.77;;
18286;SDS011;9269;50.838;12.094;2023-03-01T10:13:54;26.73;;;21.37;;
18286;SDS011;9269;50.838;12.094;2023-03-01T10:16:27;26.10;;;20.57;;
18286;SDS011;9269;50.838;12.094;2023-03-01T10:19:04;26.27;;;20.97;;
18286;SDS011;9269;50.838;12.094;2023-03-01T10:21:34;28.13;;;21.83;;
18286;SDS011;9269;50.838;12.094;2023-03-01T10:24:10;26.80;;;19.83;;
18286;SDS011;9269;50.838;12.094;2023-03-01T10:26:44;26.03;;;20.67;;
18286;SDS011;9269;50.838;12.094;2023-03-01T10:29:20;27.13;;;20.83;;
18286;SDS011;9269;50.838;12.094;2023-03-01T10:31:53;26.37;;;20.17;;
18286;SDS011;9269;50.838;12.094;2023-03-01T10:34:26;27.20;;;21.70;;
18286;SDS011;9269;50.838;12.094;2023-03-01T10:36:57;26.57;;;21.30;;
18286;SDS011;9269;50.838;12.094;2023-03-01T10:39:29;28.40;;;23.13;;
18286;SDS011;9269;50.838;12.094;2023-03-01T10:42:00;28.47;;;23.47;;
18286;SDS011;9269;50.838;12.094;2023-03-01T10:44:41;28.07;;;22.67;;
18286;SDS011;9269;50.838;12.094;2023-03-01T10:47:16;29.47;;;22.50;;
18286;SDS011;9269;50.838;12.094;2023-03-01T10:49:51;29.60;;;23.70;;
18286;SDS011;9269;50.838;12.094;2023-03-01T10:52:29;28.43;;;21.97;;
18286;SDS011;9269;50.838;12.094;2023-03-01T10:55:01;29.10;;;21.60;;
18286;SDS011;9269;50.838;12.094;2023-03-01T10:57:34;26.50;;;21.77;;
18286;SDS011;9269;50.838;12.094;2023-03-01T11:00:18;27.73;;;22.10;;
18286;SDS011;9269;50.838;12.094;2023-03-01T11:03:02;29.33;;;22.97;;
18286;SDS011;9269;50.838;12.094;2023-03-01T11:05:49;26.93;;;20.83;;
18286;SDS011;9269;50.838;12.094;2023-03-01T11:08:32;27.70;;;21.27;;
18286;SDS011;9269;50.838;12.094;2023-03-01T11:11:04;26.37;;;21.10;;
18286;SDS011;9269;50.838;12.094;2023-03-01T11:16:30;26.63;;;21.50;;
18286;SDS011;9269;50.838;12.094;2023-03-01T11:19:12;30.47;;;23.67;;
18286;SDS011;9269;50.838;12.094;2023-03-01T11:21:45;26.63;;;21.70;;
18286;SDS011;9269;50.838;12.094;2023-03-01T11:24:23;27.57;;;22.27;;
18286;SDS011;9269;50.838;12.094;2023-03-01T11:26:57;26.93;;;21.00;;
18286;SDS011;9269;50.838;12.094;2023-03-01T11:29:35;25.37;;;21.37;;
18286;SDS011;9269;50.838;12.094;2023-03-01T11:32:16;26.37;;;20.87;;
18286;SDS011;9269;50.838;12.094;2023-03-01T11:34:47;25.90;;;21.13;;
18286;SDS011;9269;50.838;12.094;2023-03-01T11:37:24;25.00;;;20.60;;
18286;SDS011;9269;50.838;12.094;2023-03-01T11:40:03;25.70;;;19.47;;
18286;SDS011;9269;50.838;12.094;2023-03-01T11:42:46;24.67;;;20.20;;
18286;SDS011;9269;50.838;12.094;2023-03-01T11:45:22;23.20;;;20.20;;
18286;SDS011;9269;50.838;12.094;2023-03-01T11:48:01;24.77;;;19.80;;
18286;SDS011;9269;50.838;12.094;2023-03-01T11:50:43;24.73;;;19.50;;
18286;SDS011;9269;50.838;12.094;2023-03-01T11:56:05;25.00;;;19.77;;
18286;SDS011;9269;50.838;12.094;2023-03-01T11:59:02;25.67;;;18.73;;
18286;SDS011;9269;50.838;12.094;2023-03-01T12:01:44;25.87;;;20.53;;
18286;SDS011;9269;50.838;12.094;2023-03-01T12:04:26;25.30;;;19.53;;
18286;SDS011;9269;50.838;12.094;2023-03-01T12:07:05;25.87;;;20.00;;
18286;SDS011;9269;50.838;12.094;2023-03-01T12:09:45;26.17;;;20.80;;
18286;SDS011;9269;50.838;12.094;2023-03-01T12:12:27;25.20;;;20.47;;
18286;SDS011;9269;50.838;12.094;2023-03-01T12:15:08;27.53;;;21.40;;
18286;SDS011;9269;50.838;12.094;2023-03-01T12:17:52;24.63;;;20.23;;
18286;SDS011;9269;50.838;12.094;2023-03-01T12:20:34;25.03;;;20.30;;
18286;SDS011;9269;50.838;12.094;2023-03-01T12:23:15;24.63;;;19.50;;
18286;SDS011;9269;50.838;12.094;2023-03-01T12:25:55;21.57;;;17.27;;
18286;SDS011;9269;50.838;12.094;2023-03-01T12:28:53;25.27;;;20.40;;
18286;SDS011;9269;50.838;12.094;2023-03-01T12:34:41;24.03;;;19.53;;
18286;SDS011;9269;50.838;12.094;2023-03-01T12:37:23;23.03;;;17.63;;
18286;SDS011;9269;50.838;12.094;2023-03-01T12:40:13;23.10;;;18.90;;
18286;SDS011;9269;50.838;12.094;2023-03-01T12:43:03;25.70;;;19.47;;
18286;SDS011;9269;50.838;12.094;2023-03-01T12:45:44;21.93;;;19.17;;
18286;SDS011;9269;50.838;12.094;2023-03-01T12:48:31;24.50;;;19.03;;
18286;SDS011;9269;50.838;12.094;2023-03-01T12:51:07;26.07;;;20.37;;
18286;SDS011;9269;50.838;12.094;2023-03-01T12:53:42;22.20;;;18.33;;
18286;SDS011;9269;50.838;12.094;2023-03-01T12:56:15;24.27;;;19.83;;
18286;SDS011;9269;50.838;12.094;2023-03-01T12:58:50;21.37;;;17.83;;
18286;SDS011;9269;50.838;12.094;2023-03-01T13:01:28;24.90;;;19.03;;
18286;SDS011;9269;50.838;12.094;2023-03-01T13:04:10;23.53;;;18.00;;
18286;SDS011;9269;50.838;12.094;2023-03-01T13:06:47;22.40;;;18.00;;
18286;SDS011;9269;50.838;12.094;2023-03-01T13:09:27;21.87;;;17.97;;
18286;SDS011;9269;50.838;12.094;2023-03-01T13:12:00;22.57;;;18.93;;
18286;SDS011;9269;50.838;12.094;2023-03-01T13:14:35;21.13;;;17.23;;
18286;SDS011;9269;50.838;12.094;2023-03-01T13:17:28;21.77;;;18.87;;
18286;SDS011;9269;50.838;12.094;2023-03-01T13:20:12;22.67;;;19.47;;
18286;SDS011;9269;50.838;12.094;2023-03-01T13:22:42;23.03;;;19.37;;
18286;SDS011;9269;50.838;12.094;2023-03-01T13:25:22;20.40;;;17.30;;
18286;SDS011;9269;50.838;12.094;2023-03-01T13:31:05;22.67;;;20.13;;
18286;SDS011;9269;50.838;12.094;2023-03-01T13:33:40;23.03;;;19.40;;
18286;SDS011;9269;50.838;12.094;2023-03-01T13:39:27;23.43;;;17.87;;
18286;SDS011;9269;50.838;12.094;2023-03-01T13:42:01;21.30;;;17.97;;
18286;SDS011;9269;50.838;12.094;2023-03-01T13:44:30;21.20;;;17.00;;
18286;SDS011;9269;50.838;12.094;2023-03-01T13:47:05;18.47;;;15.67;;
18286;SDS011;9269;50.838;12.094;2023-03-01T13:49:42;20.80;;;16.43;;
18286;SDS011;9269;50.838;12.094;2023-03-01T13:52:24;22.67;;;18.23;;
18286;SDS011;9269;50.838;12.094;2023-03-01T13:55:16;20.73;;;16.73;;
18286;SDS011;9269;50.838;12.094;2023-03-01T13:57:49;19.37;;;16.80;;
18286;SDS011;9269;50.838;12.094;2023-03-01T14:00:25;18.13;;;16.17;;
18286;SDS011;9269;50.838;12.094;2023-03-01T14:03:08;19.73;;;15.33;;
18286;SDS011;9269;50.838;12.094;2023-03-01T14:05:39;22.63;;;16.80;;
18286;SDS011;9269;50.838;12.094;2023-03-01T14:08:20;20.63;;;15.83;;
18286;SDS011;9269;50.838;12.094;2023-03-01T14:10:53;19.17;;;16.03;;
18286;SDS011;9269;50.838;12.094;2023-03-01T14:13:34;20.83;;;15.87;;
18286;SDS011;9269;50.838;12.094;2023-03-01T14:16:24;20.30;;;16.43;;
18286;SDS011;9269;50.838;12.094;2023-03-01T14:19:07;19.20;;;16.77;;
18286;SDS011;9269;50.838;12.094;2023-03-01T14:22:01;20.57;;;18.23;;
18286;SDS011;9269;50.838;12.094;2023-03-01T14:24:35;21.20;;;18.23;;
18286;SDS011;9269;50.838;12.094;2023-03-01T14:27:09;21.10;;;16.60;;
18286;SDS011;9269;50.838;12.094;2023-03-01T14:29:40;21.20;;;16.90;;
18286;SDS011;9269;50.838;12.094;2023-03-01T14:32:15;21.97;;;17.10;;
18286;SDS011;9269;50.838;12.094;2023-03-01T14:34:48;20.47;;;18.20;;
18286;SDS011;9269;50.838;12.094;2023-03-01T14:37:19;23.50;;;18.87;;
18286;SDS011;9269;50.838;12.094;2023-03-01T14:39:49;21.70;;;18.10;;
18286;SDS011;9269;50.838;12.094;2023-03-01T14:42:19;21.70;;;17.90;;
18286;SDS011;9269;50.838;12.094;2023-03-01T14:44:51;20.97;;;17.13;;
18286;SDS011;9269;50.838;12.094;2023-03-01T14:47:25;21.27;;;17.40;;
18286;SDS011;9269;50.838;12.094;2023-03-01T14:49:57;21.10;;;17.33;;
18286;SDS011;9269;50.838;12.094;2023-03-01T15:00:48;21.47;;;16.70;;
18286;SDS011;9269;50.838;12.094;2023-03-01T15:03:21;23.03;;;18.27;;
18286;SDS011;9269;50.838;12.094;2023-03-01T15:05:53;24.23;;;17.23;;
18286;SDS011;9269;50.838;12.094;2023-03-01T15:08:22;22.87;;;17.83;;
18286;SDS011;9269;50.838;12.094;2023-03-01T15:10:56;20.40;;;17.20;;
18286;SDS011;9269;50.838;12.094;2023-03-01T15:13:29;20.47;;;17.80;;
18286;SDS011;9269;50.838;12.094;2023-03-01T15:16:10;22.60;;;18.17;;